Terminal Aerodrome Forecast
Issued by NWS

Home | Current Version | Previous Version | Text Only | Print | Product List | Glossary On
Versions: 1 2 3 4 5 6 7 8 9 10 11 12 13 14 15 16 17
000
FTUS43 KEAX 162300
TAFSTJ
TAF
KSTJ 162321Z 1700/1724 14005KT P6SM SCT045 SCT250
     FM171000 12005KT 4SM BR SCT015 BKN025
     FM171500 16008KT P6SM SCT035
     FM172100 15005KT P6SM VCTS SCT035CB BKN080=

USA.gov is the U.S. government's official web portal to all federal, state and local government web resources and services.